FMCHFMMI

Guest
Details From FMCH - Prince Said Ibrahim
To FMMI - Ivato
Flight Number -
Tags Generated
Created
Modified
Stats Distance 499 nm / 925 km
Max Altitude 0 ft / 0 m
Waypoints 4
Social Downloads 0
Likes 0
Share VATSIM

Download

Looking for another format? Having issues loading an existing format? Contact us
Advertisement - Login to hide

Notes

Generated

Route

FMCH 1545S IA FMMI

ID Type Via Altitude Latitude Longitude Leg Dist Tot Dist Heading (true) Name
O FMCH APT - 0 ft / 0 m -11.54659˚ 43.26955˚ - 0 nm - -
1545S FIX - 0 ft / 0 m -15.00000˚ 45.00000˚ 230 nm 230 nm 154° / 154° -
IA NDB - 0 ft / 0 m -18.79336˚ 47.45492˚ 267 nm 498 nm 149° / 148° ANTANANARIVO IVATO NDB
O FMMI APT - 0 ft / 0 m -18.79479˚ 47.46427˚ 0 nm 499 nm 99° / 99° -

Altitude Profile

Advertisement - Login to hide

Weather


0- 5 10 15 20 25 30 35+ Temperature / ° C

Clouds and Precipitation
Forecast for 2017-12-13 00:00 UTC. Updated an hour ago

Ground ~20,000 ft ~40,000 ft Winds

FMCH

Details ICAO FMCH (HAH)
Name PRINCE SAID IBRAHIM
Region Comoros, Mayotte, Réunion and Madagascar
Timezone Indian/Comoro (UTC+3.0)
Stats Elevation 93 ft / 28 m (AMSL)
Location -11.533663° 43.271848°
Runways 1
Magnetic Variation 6.419° W

METAR

Not found

TAF

TAF FMCH 121700Z 1218/1324 03003KT 9999 FEW020 SCT030 PROB30 TEMPO 1300/1310 4000 SHRA FEW018CB BKN025

Decode

Departure Runways

ID Width Length Bearing (true) Bearing (mag) Surface Threshold Offset Overrun Length
02 148 ft / 45 m 9,576 ft / 2,919 m 9.88° 16.30° Asphalt 0 ft / 0 m 200 ft / 61 m
20 148 ft / 45 m 9,576 ft / 2,919 m 189.88° 196.30° Asphalt 0 ft / 0 m 200 ft / 61 m

FMMI

Details ICAO FMMI (TNR)
Name IVATO
Region Comoros, Mayotte, Réunion and Madagascar
Timezone Indian/Antananarivo (UTC+3.0)
Stats Elevation 4,198 ft / 1,280 m (AMSL)
Location -18.796950° 47.478806°
Runways 1
Magnetic Variation 15.160° W

METAR

FMMI 122200Z VRB03KT 9999 FEW017 19/18 Q1021 NOSIG

Decode

TAF

TAF FMMI 121700Z 1218/1324 08008KT 9999 FEW007 SCT017CB BKN020 TEMPO 1218/1305 4000 SHRA TEMPO 1218/1222 TS PROB30 TEMPO 1309/1324 4000 TSRA

Decode

Destination Runways

ID Width Length Bearing (true) Bearing (mag) Surface Threshold Offset Overrun Length
11 148 ft / 45 m 10,167 ft / 3,099 m 98.92° 114.08° Asphalt 0 ft / 0 m 90 ft / 27 m
29 148 ft / 45 m 10,167 ft / 3,099 m 278.91° 294.07° Asphalt 0 ft / 0 m 90 ft / 27 m

Approach Navaids

Runway Type Ident Frequency Range Bearing (true) Bearing (mag) Slope Elevation
11 Localiser IO 109.50 MHz 18 nm / 33 km 98.89° 114.05° - 4,125 ft / 1,257 m (AMSL)
11 Glidescope IO 109.50 MHz 10 nm / 19 km 98.91° 114.07° 3.00° 4,198 ft / 1,280 m (AMSL)

Popular Alternatives